Time;durP1;ratioP1;P1;durP2;ratioP2;P2;SDS_P1;SDS_P2;PMS_P1;PMS_P2;Temp;Humidity;BMP_temperature;BMP_pressure;BME280_temperature;BME280_humidity;BME280_pressure;Samples;Min_cycle;Max_cycle;Signal;HPM_P1;HPM_P2
2022/03/27 00:01:03;;;;;;;18.00;13.17;;;;;;;11.46;100.00;100333.69;4924904;28;20224;-79
2022/03/27 00:03:33;;;;;;;19.00;13.27;;;;;;;11.24;100.00;100330.38;4931973;28;20208;-79
2022/03/27 00:06:02;;;;;;;21.20;13.17;;;;;;;11.29;100.00;100334.53;4927630;29;20251;-79
2022/03/27 00:08:33;;;;;;;18.67;13.00;;;;;;;11.30;100.00;100335.41;4932754;28;20197;-79
2022/03/27 00:13:56;;;;;;;19.47;13.60;;;;;;;11.22;100.00;100334.91;4930825;28;20209;-79
2022/03/27 00:16:25;;;;;;;18.57;13.03;;;;;;;11.18;100.00;100327.06;4872829;29;20253;-79
2022/03/27 00:18:55;;;;;;;17.60;12.53;;;;;;;11.02;100.00;100331.41;4872265;29;20291;-79
2022/03/27 00:21:24;;;;;;;21.17;12.97;;;;;;;11.13;100.00;100333.53;4869084;29;20207;-80
2022/03/27 00:23:54;;;;;;;19.97;13.30;;;;;;;10.96;100.00;100336.97;4994773;28;20194;-79
2022/03/27 00:26:23;;;;;;;17.73;13.03;;;;;;;10.85;100.00;100332.16;5010557;28;20265;-79
2022/03/27 00:28:53;;;;;;;16.20;12.20;;;;;;;10.84;100.00;100333.09;5005251;28;20202;-79
2022/03/27 00:31:22;;;;;;;18.17;12.93;;;;;;;10.71;100.00;100333.72;5002190;28;20197;-79
2022/03/27 00:33:50;;;;;;;17.40;12.83;;;;;;;10.85;100.00;100328.66;4963149;28;20245;-79
2022/03/27 00:36:21;;;;;;;17.50;13.13;;;;;;;10.89;100.00;100324.94;5064819;28;20246;-79
2022/03/27 00:38:50;;;;;;;18.87;12.57;;;;;;;10.81;100.00;100316.50;5066398;28;20275;-79
2022/03/27 00:41:19;;;;;;;19.43;13.70;;;;;;;10.65;100.00;100328.72;5046554;28;20391;-79
2022/03/27 00:46:36;;;;;;;19.83;13.73;;;;;;;10.82;100.00;100315.56;5097382;27;20541;-78
2022/03/27 00:49:05;;;;;;;20.63;13.50;;;;;;;10.98;100.00;100319.19;4994606;28;20190;-78
2022/03/27 00:51:35;;;;;;;24.90;13.53;;;;;;;11.04;100.00;100323.38;5029028;28;20209;-79
2022/03/27 00:54:04;;;;;;;19.13;13.93;;;;;;;11.09;100.00;100322.19;5028506;28;20201;-79
2022/03/27 00:56:32;;;;;;;21.13;13.47;;;;;;;11.12;100.00;100321.22;4950397;28;20211;-79
2022/03/27 00:59:01;;;;;;;16.93;13.30;;;;;;;11.02;100.00;100323.44;4949784;28;20199;-79
2022/03/27 01:01:35;;;;;;;20.20;13.30;;;;;;;11.08;100.00;100315.19;4908607;29;20206;-79
2022/03/27 01:04:09;;;;;;;18.83;13.13;;;;;;;10.83;100.00;100318.13;4911058;29;20229;-78
2022/03/27 01:06:40;;;;;;;20.93;13.57;;;;;;;10.69;100.00;100317.91;4922852;28;20223;-79
2022/03/27 01:11:56;;;;;;;17.20;13.10;;;;;;;10.46;100.00;100315.44;4969549;28;20358;-78
2022/03/27 01:14:32;;;;;;;17.47;13.40;;;;;;;10.21;100.00;100321.78;5006009;28;20204;-78
2022/03/27 01:17:08;;;;;;;19.17;13.57;;;;;;;10.02;100.00;100311.13;5065289;28;20690;-78
2022/03/27 01:19:42;;;;;;;19.37;13.67;;;;;;;9.99;100.00;100310.41;5064199;28;20193;-78
2022/03/27 01:22:12;;;;;;;20.90;14.13;;;;;;;9.99;100.00;100311.28;5064070;28;20195;-78
2022/03/27 01:24:42;;;;;;;22.40;14.40;;;;;;;10.00;100.00;100307.69;5068295;28;20197;-79
2022/03/27 01:27:10;;;;;;;22.50;14.30;;;;;;;10.06;100.00;100311.03;5087376;28;20192;-78
2022/03/27 01:29:39;;;;;;;21.80;14.73;;;;;;;10.08;100.00;100311.81;5090143;28;20192;-78
2022/03/27 01:32:14;;;;;;;21.70;13.53;;;;;;;9.96;100.00;100307.91;5088768;28;20184;-79
2022/03/27 01:34:44;;;;;;;24.67;13.97;;;;;;;9.99;100.00;100307.75;5088528;28;20207;-79
2022/03/27 01:37:16;;;;;;;21.20;14.07;;;;;;;9.69;100.00;100308.16;5090010;28;20187;-78
2022/03/27 01:39:46;;;;;;;22.77;14.47;;;;;;;9.66;100.00;100303.00;5090015;28;20196;-79
2022/03/27 01:42:18;;;;;;;24.00;14.33;;;;;;;9.63;100.00;100303.09;5086927;28;20216;-79
2022/03/27 01:44:47;;;;;;;21.10;14.83;;;;;;;9.44;100.00;100302.13;5084607;28;20231;-78
2022/03/27 01:47:16;;;;;;;20.97;14.80;;;;;;;9.48;100.00;100297.59;5079715;28;20232;-79
2022/03/27 01:49:45;;;;;;;20.73;13.83;;;;;;;9.60;100.00;100295.31;5022765;28;20577;-79
2022/03/27 01:52:17;;;;;;;20.97;14.87;;;;;;;9.58;100.00;100293.66;5023459;28;20202;-79
2022/03/27 01:54:45;;;;;;;21.97;14.30;;;;;;;9.31;100.00;100301.78;5024293;28;20209;-78
2022/03/27 01:57:14;;;;;;;23.17;15.03;;;;;;;9.43;100.00;100289.84;4998073;28;20242;-79
2022/03/27 01:59:43;;;;;;;19.27;13.80;;;;;;;9.50;100.00;100298.41;5006390;28;20261;-78
2022/03/27 02:02:12;;;;;;;22.40;14.63;;;;;;;9.50;100.00;100296.59;5009819;28;20198;-79
2022/03/27 02:04:40;;;;;;;23.00;14.67;;;;;;;9.57;100.00;100291.94;5015110;28;20206;-79
2022/03/27 02:07:09;;;;;;;22.00;14.83;;;;;;;9.43;100.00;100300.41;5022922;28;20216;-79
2022/03/27 02:09:39;;;;;;;20.27;15.07;;;;;;;9.41;100.00;100289.91;5071446;28;20192;-78
2022/03/27 02:12:08;;;;;;;22.50;15.80;;;;;;;9.18;100.00;100297.94;5042483;28;20200;-78
2022/03/27 02:14:37;;;;;;;23.93;15.17;;;;;;;8.93;100.00;100295.38;5081673;27;20192;-78
2022/03/27 02:17:07;;;;;;;21.97;15.23;;;;;;;9.02;100.00;100297.66;5077327;28;20251;-78
2022/03/27 02:19:36;;;;;;;24.80;15.70;;;;;;;9.21;100.00;100296.94;5074688;28;20192;-78
2022/03/27 02:22:05;;;;;;;23.10;14.80;;;;;;;9.08;100.00;100301.84;5074516;28;20196;-78
2022/03/27 02:24:41;;;;;;;20.87;15.57;;;;;;;9.22;100.00;100288.94;5075870;28;20277;-78
2022/03/27 02:27:13;;;;;;;22.97;16.63;;;;;;;9.21;100.00;100295.16;5079655;28;20216;-79
2022/03/27 02:29:41;;;;;;;23.93;15.73;;;;;;;9.06;100.00;100295.75;5082167;28;20196;-79
2022/03/27 02:32:10;;;;;;;23.40;14.70;;;;;;;9.07;100.00;100297.47;5082256;28;20204;-78
2022/03/27 02:34:40;;;;;;;21.63;15.10;;;;;;;8.93;100.00;100290.09;5079473;28;20192;-78
2022/03/27 02:37:13;;;;;;;23.77;15.93;;;;;;;9.06;100.00;100295.75;5076741;28;20207;-78
2022/03/27 02:39:43;;;;;;;26.27;16.17;;;;;;;8.95;100.00;100295.31;5074846;28;20648;-79
2022/03/27 02:42:13;;;;;;;22.57;15.10;;;;;;;9.03;100.00;100293.22;5075194;28;20211;-79
2022/03/27 02:44:43;;;;;;;21.93;15.20;;;;;;;8.97;100.00;100296.97;5073514;28;20227;-79
2022/03/27 02:47:13;;;;;;;24.07;16.23;;;;;;;8.97;100.00;100304.03;5074894;28;20218;-79
2022/03/27 02:49:43;;;;;;;24.33;15.10;;;;;;;8.95;100.00;100296.16;5075021;28;20203;-79
2022/03/27 02:52:13;;;;;;;22.67;15.73;;;;;;;8.83;100.00;100309.88;5072105;28;20196;-79
2022/03/27 02:54:44;;;;;;;24.40;15.63;;;;;;;8.74;100.00;100299.66;5075814;28;20200;-79
2022/03/27 02:57:15;;;;;;;21.27;15.63;;;;;;;8.50;100.00;100301.44;5053273;28;20395;-78
2022/03/27 02:59:44;;;;;;;22.53;14.40;;;;;;;8.54;100.00;100305.69;5073265;28;20246;-78
2022/03/27 03:02:14;;;;;;;23.70;15.40;;;;;;;8.66;100.00;100296.44;5052106;28;20200;-78
2022/03/27 03:04:44;;;;;;;25.83;16.17;;;;;;;8.70;100.00;100305.97;5010768;28;20270;-79
2022/03/27 03:07:13;;;;;;;23.10;15.20;;;;;;;8.73;100.00;100293.50;5052772;28;20217;-79
2022/03/27 03:09:44;;;;;;;22.93;14.87;;;;;;;8.52;100.00;100299.59;5050457;28;20232;-79
2022/03/27 03:12:17;;;;;;;22.00;14.53;;;;;;;8.67;100.00;100295.50;5052744;28;20193;-79
2022/03/27 03:14:46;;;;;;;23.50;15.87;;;;;;;8.58;100.00;100296.72;5050814;28;20243;-78
2022/03/27 03:17:15;;;;;;;22.90;14.87;;;;;;;8.54;100.00;100303.91;5048349;28;20312;-78
2022/03/27 03:19:44;;;;;;;22.17;15.33;;;;;;;8.41;100.00;100307.91;5048334;28;20197;-79
2022/03/27 03:22:15;;;;;;;22.33;15.07;;;;;;;8.38;100.00;100305.38;5045391;28;20258;-78
2022/03/27 03:24:44;;;;;;;22.60;14.80;;;;;;;8.45;100.00;100308.66;5048798;28;20197;-79
2022/03/27 03:27:14;;;;;;;19.33;14.60;;;;;;;8.18;100.00;100303.41;5063469;28;20216;-78
2022/03/27 03:29:47;;;;;;;21.73;14.43;;;;;;;8.20;100.00;100300.72;5048611;28;20190;-78
2022/03/27 03:32:16;;;;;;;23.13;15.23;;;;;;;7.97;100.00;100305.03;5002343;28;20211;-78
2022/03/27 03:34:44;;;;;;;20.67;14.87;;;;;;;7.84;100.00;100308.16;4991803;28;20254;-78
2022/03/27 03:37:12;;;;;;;25.63;15.33;;;;;;;7.74;100.00;100311.13;4986464;28;20202;-78
2022/03/27 03:39:40;;;;;;;23.53;15.03;;;;;;;7.68;100.00;100307.81;4989043;28;20224;-78
2022/03/27 03:42:10;;;;;;;25.03;15.40;;;;;;;7.62;100.00;100308.88;4989355;28;20646;-78
2022/03/27 03:44:41;;;;;;;23.57;15.43;;;;;;;7.62;100.00;100308.88;4987130;28;20214;-79
2022/03/27 03:47:11;;;;;;;23.30;16.10;;;;;;;7.62;100.00;100314.16;4992978;28;20218;-78
2022/03/27 03:49:40;;;;;;;21.70;14.93;;;;;;;7.73;100.00;100314.69;5025172;28;20201;-78
2022/03/27 03:52:08;;;;;;;23.20;16.30;;;;;;;7.64;100.00;100316.75;5032578;28;20190;-77
2022/03/27 03:54:37;;;;;;;21.80;15.67;;;;;;;7.38;100.00;100314.97;4981286;28;20206;-78
2022/03/27 03:57:07;;;;;;;24.73;16.40;;;;;;;7.44;100.00;100315.63;5027268;28;20205;-78
2022/03/27 03:59:36;;;;;;;22.70;15.47;;;;;;;7.31;100.00;100318.69;5052323;28;20188;-78
2022/03/27 04:02:13;;;;;;;25.60;15.93;;;;;;;7.09;100.00;100315.88;5076923;28;20192;-78
2022/03/27 04:04:42;;;;;;;24.50;16.77;;;;;;;7.01;100.00;100316.13;5070983;28;20240;-78
2022/03/27 04:07:11;;;;;;;24.67;16.60;;;;;;;7.25;100.00;100311.00;5068047;28;20679;-78
2022/03/27 04:09:42;;;;;;;25.43;17.23;;;;;;;7.11;100.00;100312.28;5076707;28;20223;-78
2022/03/27 04:12:12;;;;;;;24.47;17.10;;;;;;;7.17;100.00;100314.75;5070744;28;20189;-78
2022/03/27 04:14:43;;;;;;;26.93;17.70;;;;;;;7.08;100.00;100315.03;5085807;28;20188;-78
2022/03/27 04:17:14;;;;;;;29.17;17.20;;;;;;;7.07;100.00;100312.44;5072260;28;20639;-78
2022/03/27 04:19:42;;;;;;;26.00;17.07;;;;;;;7.12;100.00;100316.66;5063371;28;20200;-78
2022/03/27 04:22:10;;;;;;;27.40;16.90;;;;;;;7.08;100.00;100317.66;5069870;28;20190;-78
2022/03/27 04:24:41;;;;;;;28.33;16.67;;;;;;;7.15;100.00;100318.34;5067337;28;20218;-78
2022/03/27 04:27:09;;;;;;;29.03;18.10;;;;;;;7.14;100.00;100309.59;5069644;28;20224;-78
2022/03/27 04:29:38;;;;;;;27.23;17.33;;;;;;;7.24;100.00;100311.91;5007407;28;20198;-78
2022/03/27 04:32:06;;;;;;;26.23;17.13;;;;;;;7.41;100.00;100320.13;5010490;28;20206;-79
2022/03/27 04:34:36;;;;;;;26.37;17.77;;;;;;;7.45;100.00;100311.22;5000421;28;20198;-79
2022/03/27 04:37:05;;;;;;;24.17;16.73;;;;;;;7.39;100.00;100314.91;5004711;28;20206;-78
2022/03/27 04:39:35;;;;;;;25.63;16.73;;;;;;;7.39;100.00;100312.28;5006839;28;20202;-78
2022/03/27 04:42:03;;;;;;;23.13;16.47;;;;;;;7.25;100.00;100311.00;5006978;28;20209;-78
2022/03/27 04:44:31;;;;;;;24.43;16.33;;;;;;;7.41;100.00;100314.84;5008604;28;20236;-79
2022/03/27 04:46:59;;;;;;;24.77;15.93;;;;;;;7.59;100.00;100308.13;5003647;28;20218;-79
2022/03/27 04:49:30;;;;;;;23.93;16.33;;;;;;;7.78;100.00;100311.00;5010165;28;20222;-78
2022/03/27 04:52:00;;;;;;;25.53;16.67;;;;;;;7.83;100.00;100307.31;5006621;28;20201;-78
2022/03/27 04:54:30;;;;;;;25.70;16.73;;;;;;;7.79;100.00;100310.94;5043880;28;20246;-78
2022/03/27 04:57:04;;;;;;;24.83;16.27;;;;;;;7.73;100.00;100317.31;5072849;28;20197;-79
2022/03/27 04:59:32;;;;;;;24.90;16.13;;;;;;;7.62;100.00;100310.66;5071773;28;20203;-79
2022/03/27 05:02:02;;;;;;;22.50;15.77;;;;;;;7.67;100.00;100311.38;5073207;28;20188;-79
2022/03/27 05:04:31;;;;;;;24.70;16.93;;;;;;;7.61;100.00;100319.47;5035780;28;20230;-79
2022/03/27 05:07:01;;;;;;;25.23;17.37;;;;;;;7.61;100.00;100325.59;5076894;28;20266;-78
2022/03/27 05:09:30;;;;;;;27.03;16.93;;;;;;;7.61;100.00;100328.25;5074786;28;20287;-79
2022/03/27 05:11:58;;;;;;;24.97;16.57;;;;;;;7.36;100.00;100316.78;5075886;28;20212;-79
2022/03/27 05:14:26;;;;;;;25.37;15.33;;;;;;;7.38;100.00;100321.09;5071699;28;20250;-78
2022/03/27 05:16:56;;;;;;;23.63;16.53;;;;;;;7.15;100.00;100332.38;5069508;28;20547;-78
2022/03/27 05:19:27;;;;;;;26.00;16.63;;;;;;;7.23;100.00;100328.63;5071625;28;20693;-78
2022/03/27 05:21:56;;;;;;;22.60;15.10;;;;;;;7.06;100.00;100329.16;5074324;28;20200;-78
2022/03/27 05:24:28;;;;;;;25.17;16.10;;;;;;;7.02;100.00;100330.16;5066868;28;20205;-79
2022/03/27 05:26:56;;;;;;;25.40;16.83;;;;;;;6.90;100.00;100334.03;5034043;28;20242;-78
2022/03/27 05:29:26;;;;;;;23.53;16.17;;;;;;;6.84;100.00;100329.78;5068293;28;20211;-78
2022/03/27 05:31:54;;;;;;;24.63;16.57;;;;;;;6.86;100.00;100329.78;5070234;28;20204;-78
2022/03/27 05:34:23;;;;;;;28.73;16.63;;;;;;;6.97;100.00;100326.81;5079083;28;20196;-78
2022/03/27 05:36:52;;;;;;;25.00;16.70;;;;;;;6.99;100.00;100323.22;5075645;28;20192;-79
2022/03/27 05:39:20;;;;;;;27.47;17.30;;;;;;;7.09;100.00;100334.34;5077018;28;20204;-78
2022/03/27 05:41:50;;;;;;;27.47;16.47;;;;;;;7.17;100.00;100329.69;5081967;28;20196;-78
2022/03/27 05:44:19;;;;;;;27.60;16.30;;;;;;;7.27;100.00;100340.81;5082868;28;20279;-78
2022/03/27 05:46:48;;;;;;;28.63;16.83;;;;;;;7.06;100.00;100329.16;5043182;28;20192;-78
2022/03/27 05:49:16;;;;;;;23.70;16.83;;;;;;;7.00;100.00;100346.00;5070160;28;20196;-78
2022/03/27 05:51:45;;;;;;;23.20;16.77;;;;;;;6.82;100.00;100342.16;5071201;28;20193;-79
2022/03/27 05:54:13;;;;;;;30.13;17.37;;;;;;;6.84;100.00;100334.19;5073641;28;20192;-78
2022/03/27 05:56:42;;;;;;;26.80;17.17;;;;;;;6.89;100.00;100348.09;5072485;28;20210;-78
2022/03/27 05:59:14;;;;;;;26.83;17.40;;;;;;;6.84;100.00;100350.00;5073350;28;20207;-78
2022/03/27 06:01:44;;;;;;;26.20;17.87;;;;;;;6.75;100.00;100352.91;5074311;28;20200;-78
2022/03/27 06:04:12;;;;;;;30.40;17.43;;;;;;;6.95;100.00;100349.69;5073247;28;20271;-78
2022/03/27 06:06:41;;;;;;;27.70;17.60;;;;;;;6.92;100.00;100361.19;5077147;28;20192;-78
2022/03/27 06:09:09;;;;;;;26.57;17.00;;;;;;;7.10;100.00;100357.13;5074036;28;20257;-78
2022/03/27 06:11:38;;;;;;;23.07;16.17;;;;;;;7.05;100.00;100359.06;5077110;28;20208;-78
2022/03/27 06:14:06;;;;;;;24.77;16.77;;;;;;;6.89;100.00;100356.00;5054716;28;20189;-78
2022/03/27 06:16:37;;;;;;;27.17;17.57;;;;;;;7.02;100.00;100354.72;5070453;28;20196;-78
2022/03/27 06:19:06;;;;;;;28.53;17.37;;;;;;;7.03;100.00;100360.84;5074467;28;20192;-79
2022/03/27 06:21:34;;;;;;;25.17;17.37;;;;;;;7.16;100.00;100365.72;5079826;28;20212;-79
2022/03/27 06:24:04;;;;;;;29.70;18.20;;;;;;;7.36;100.00;100366.88;5074406;28;20203;-78
2022/03/27 06:26:32;;;;;;;24.43;17.47;;;;;;;7.61;100.00;100366.94;5075012;28;20207;-79
2022/03/27 06:29:00;;;;;;;25.97;18.37;;;;;;;7.63;100.00;100371.28;5074127;28;20212;-78
2022/03/27 06:31:29;;;;;;;29.23;18.80;;;;;;;7.85;100.00;100376.69;5081444;27;20212;-79
2022/03/27 06:33:59;;;;;;;32.80;19.17;;;;;;;8.02;100.00;100370.88;5070870;28;20189;-79
2022/03/27 06:36:28;;;;;;;27.07;18.70;;;;;;;8.12;100.00;100372.28;5081854;27;20200;-78
2022/03/27 06:38:59;;;;;;;27.10;18.80;;;;;;;8.25;100.00;100370.91;5075502;28;20249;-79
2022/03/27 06:41:27;;;;;;;30.57;18.17;;;;;;;8.39;100.00;100370.44;5075161;28;20192;-77
2022/03/27 06:43:56;;;;;;;31.37;19.63;;;;;;;8.44;100.00;100378.22;5076204;28;20195;-78
2022/03/27 06:46:24;;;;;;;29.47;19.40;;;;;;;8.59;100.00;100375.91;5072646;28;20226;-78
2022/03/27 06:48:52;;;;;;;30.13;19.27;;;;;;;8.77;100.00;100376.97;5072881;28;20302;-78
2022/03/27 06:51:22;;;;;;;30.37;18.93;;;;;;;8.92;100.00;100372.91;5076275;28;20245;-78
2022/03/27 06:53:53;;;;;;;26.17;18.73;;;;;;;9.10;100.00;100380.16;5073617;28;20192;-79
2022/03/27 06:56:21;;;;;;;25.93;18.60;;;;;;;9.22;100.00;100373.53;5073307;28;20194;-78
2022/03/27 06:58:51;;;;;;;28.63;19.30;;;;;;;9.33;100.00;100378.41;5081358;28;20188;-78
2022/03/27 07:04:07;;;;;;;27.27;18.67;;;;;;;9.50;100.00;100375.94;5076120;28;20203;-79
2022/03/27 07:06:42;;;;;;;28.67;19.03;;;;;;;9.70;100.00;100386.59;5075036;28;20225;-79
2022/03/27 07:09:12;;;;;;;29.87;19.80;;;;;;;9.78;100.00;100382.78;5072803;28;20246;-78
2022/03/27 07:11:41;;;;;;;26.03;18.50;;;;;;;10.01;100.00;100388.81;5070552;28;20222;-79
2022/03/27 07:14:12;;;;;;;24.90;18.47;;;;;;;10.12;100.00;100382.22;5032307;28;20193;-79
2022/03/27 07:16:41;;;;;;;28.03;18.40;;;;;;;10.34;100.00;100385.72;5027564;28;20190;-79
2022/03/27 07:19:10;;;;;;;30.87;19.17;;;;;;;10.43;100.00;100387.09;5024206;28;20240;-78
2022/03/27 07:21:41;;;;;;;28.37;19.23;;;;;;;10.53;100.00;100385.78;5025257;28;20239;-79
2022/03/27 07:24:10;;;;;;;29.83;18.40;;;;;;;10.69;100.00;100383.28;5028026;28;20198;-79
2022/03/27 07:26:38;;;;;;;28.80;19.00;;;;;;;10.83;100.00;100383.53;5029852;28;20715;-79
2022/03/27 07:29:10;;;;;;;27.17;21.30;;;;;;;11.04;100.00;100376.38;5026575;28;20263;-79
2022/03/27 07:31:38;;;;;;;27.73;18.57;;;;;;;11.09;100.00;100377.88;5035485;28;20231;-79
2022/03/27 07:34:07;;;;;;;29.13;18.37;;;;;;;11.24;100.00;100375.47;5070236;28;20228;-78
2022/03/27 07:36:36;;;;;;;27.53;18.70;;;;;;;11.31;100.00;100369.78;5073574;28;20192;-79
2022/03/27 07:39:09;;;;;;;27.73;18.43;;;;;;;11.47;100.00;100375.22;5075835;28;20686;-78
2022/03/27 07:41:40;;;;;;;28.17;18.67;;;;;;;11.60;100.00;100378.16;5067556;28;20261;-79
2022/03/27 07:44:08;;;;;;;25.60;18.50;;;;;;;11.55;100.00;100378.34;5074773;28;20269;-79
2022/03/27 07:46:37;;;;;;;29.37;19.43;;;;;;;11.72;100.00;100375.75;5074860;28;20228;-79
2022/03/27 07:49:08;;;;;;;25.73;19.63;;;;;;;11.98;100.00;100381.59;5069534;28;20219;-79
2022/03/27 07:51:36;;;;;;;23.63;18.40;;;;;;;12.08;100.00;100379.34;5072358;28;20196;-79
2022/03/27 07:54:07;;;;;;;27.00;18.50;;;;;;;12.10;100.00;100370.34;5069328;28;20254;-79
2022/03/27 07:56:36;;;;;;;27.40;18.10;;;;;;;12.39;100.00;100375.97;5066353;28;20203;-80
2022/03/27 07:59:05;;;;;;;24.63;17.07;;;;;;;12.64;100.00;100372.88;5075607;28;20197;-80
2022/03/27 08:01:34;;;;;;;25.00;16.87;;;;;;;12.77;100.00;100368.63;5071813;28;20188;-80
2022/03/27 08:04:05;;;;;;;23.83;16.37;;;;;;;13.02;100.00;100368.16;5053197;28;20200;-79
2022/03/27 08:06:36;;;;;;;24.13;16.37;;;;;;;13.14;100.00;100363.03;5072839;28;20204;-79
2022/03/27 08:09:08;;;;;;;21.77;16.50;;;;;;;13.21;100.00;100362.72;5075089;28;20208;-80
2022/03/27 08:11:41;;;;;;;25.37;16.60;;;;;;;13.29;100.00;100360.47;5069927;28;20228;-80
2022/03/27 08:14:11;;;;;;;22.10;15.20;;;;;;;13.61;100.00;100348.91;5070007;28;20184;-80
2022/03/27 08:16:39;;;;;;;22.83;16.10;;;;;;;13.88;100.00;100342.88;5068989;28;20204;-80
2022/03/27 08:19:09;;;;;;;21.03;15.53;;;;;;;13.93;100.00;100351.50;5072030;28;20196;-80
2022/03/27 08:21:41;;;;;;;23.77;15.60;;;;;;;13.97;100.00;100348.53;5074481;28;20201;-80
2022/03/27 08:24:10;;;;;;;19.63;15.30;;;;;;;13.95;100.00;100345.13;5072159;28;20246;-80
2022/03/27 08:26:57;;;;;;;20.60;14.60;;;;;;;13.95;100.00;100342.44;5078051;28;20197;-79
2022/03/27 08:29:26;;;;;;;19.00;14.83;;;;;;;14.24;100.00;100343.38;5073018;28;20222;-80
2022/03/27 08:31:55;;;;;;;19.73;15.90;;;;;;;14.35;100.00;100339.22;5074830;28;20200;-80
2022/03/27 08:34:26;;;;;;;20.50;15.67;;;;;;;14.60;100.00;100339.47;5072503;28;20242;-80
2022/03/27 08:36:55;;;;;;;22.00;15.10;;;;;;;14.96;100.00;100348.78;5067237;28;20208;-80
2022/03/27 08:39:29;;;;;;;21.83;14.63;;;;;;;14.94;100.00;100332.88;5076878;28;20208;-80
2022/03/27 08:42:05;;;;;;;19.10;14.00;;;;;;;14.63;100.00;100339.28;5087259;28;20199;-80
2022/03/27 08:44:37;;;;;;;21.00;14.63;;;;;;;14.89;100.00;100335.84;5084947;28;20207;-80
2022/03/27 08:47:19;;;;;;;19.90;14.13;;;;;;;14.64;100.00;100332.13;5087927;28;20626;-80
2022/03/27 08:50:04;;;;;;;23.27;14.63;;;;;;;14.92;100.00;100342.78;5090353;28;20212;-80
2022/03/27 08:52:55;;;;;;;20.03;14.17;;;;;;;15.10;100.00;100340.78;5090291;28;20211;-80
2022/03/27 08:55:38;;;;;;;18.00;13.97;;;;;;;15.35;100.00;100340.06;5048103;28;20196;-80
2022/03/27 08:58:09;;;;;;;18.13;13.20;;;;;;;15.27;100.00;100334.34;4985981;28;20206;-81
2022/03/27 09:00:39;;;;;;;15.80;12.93;;;;;;;15.67;100.00;100332.63;4988730;28;20194;-80
2022/03/27 09:03:12;;;;;;;17.43;13.30;;;;;;;15.42;100.00;100331.53;4988922;28;20203;-80
2022/03/27 09:05:41;;;;;;;17.43;13.60;;;;;;;15.66;100.00;100330.94;4989340;28;20207;-80
2022/03/27 09:08:13;;;;;;;18.40;13.20;;;;;;;15.91;100.00;100330.13;4993403;28;20191;-80
2022/03/27 09:10:46;;;;;;;18.13;13.40;;;;;;;15.81;100.00;100331.69;4994976;28;20238;-80
2022/03/27 09:13:16;;;;;;;17.17;13.23;;;;;;;16.21;100.00;100335.19;5007845;28;20196;-81
2022/03/27 09:15:46;;;;;;;16.17;13.27;;;;;;;16.30;100.00;100329.22;5037916;28;20192;-81
2022/03/27 09:18:16;;;;;;;15.87;12.77;;;;;;;16.13;100.00;100337.56;5078545;28;20196;-80
2022/03/27 09:20:48;;;;;;;17.07;13.73;;;;;;;16.00;100.00;100332.19;5078892;28;20659;-80
2022/03/27 09:23:21;;;;;;;18.93;13.30;;;;;;;16.22;100.00;100334.28;5081398;28;20267;-80
2022/03/27 09:25:54;;;;;;;17.57;13.77;;;;;;;16.07;100.00;100329.97;5082074;28;20199;-81
2022/03/27 09:28:34;;;;;;;18.03;14.10;;;;;;;16.46;100.00;100327.22;5081718;28;20212;-80
2022/03/27 09:31:05;;;;;;;19.40;14.03;;;;;;;16.63;100.00;100325.19;5099471;28;20211;-80
2022/03/27 09:33:46;;;;;;;19.73;14.33;;;;;;;16.74;100.00;100331.53;5091583;28;20233;-80
2022/03/27 09:36:20;;;;;;;15.77;12.77;;;;;;;17.24;100.00;100331.53;5095831;28;20642;-80
2022/03/27 09:39:15;;;;;;;16.93;13.03;;;;;;;17.15;100.00;100317.84;5090793;28;20187;-80
2022/03/27 09:41:47;;;;;;;18.47;13.87;;;;;;;16.81;100.00;100327.44;5090256;28;20206;-80
2022/03/27 09:44:27;;;;;;;19.00;14.90;;;;;;;17.26;100.00;100319.72;5092505;28;20188;-80
2022/03/27 09:47:00;;;;;;;17.77;12.67;;;;;;;17.18;100.00;100322.13;5090304;28;20202;-80
2022/03/27 09:49:48;;;;;;;19.47;13.53;;;;;;;17.19;100.00;100315.81;5079436;28;20212;-80
2022/03/27 09:52:17;;;;;;;17.20;12.93;;;;;;;17.31;100.00;100311.38;5073330;28;20254;-80
2022/03/27 09:54:55;;;;;;;17.13;13.30;;;;;;;17.54;100.00;100318.56;5079706;28;20211;-81
2022/03/27 09:57:27;;;;;;;17.57;13.70;;;;;;;16.91;100.00;100303.56;5076321;28;20227;-81
2022/03/27 09:59:58;;;;;;;18.53;14.10;;;;;;;16.64;100.00;100314.38;5029551;28;20193;-80
2022/03/27 10:02:28;;;;;;;18.00;13.47;;;;;;;16.79;100.00;100310.66;5029184;28;20244;-81
2022/03/27 10:05:01;;;;;;;18.07;13.13;;;;;;;17.26;100.00;100303.66;5047559;28;20201;-80
2022/03/27 10:07:41;;;;;;;16.53;12.80;;;;;;;17.34;100.00;100305.78;5046726;28;20201;-80
2022/03/27 10:10:12;;;;;;;17.83;12.37;;;;;;;17.12;100.00;100299.31;5049446;28;20216;-80
2022/03/27 10:12:44;;;;;;;16.13;12.30;;;;;;;17.41;100.00;100304.38;5050613;28;20197;-82
2022/03/27 10:15:14;;;;;;;24.37;12.93;;;;;;;17.22;100.00;100296.81;5046063;28;20193;-80
2022/03/27 10:17:47;;;;;;;16.33;12.53;;;;;;;17.61;100.00;100308.25;5051625;28;20196;-80
2022/03/27 10:20:18;;;;;;;16.90;12.63;;;;;;;18.50;100.00;100294.25;5064436;28;20192;-80
2022/03/27 10:22:48;;;;;;;16.17;11.90;;;;;;;19.01;100.00;100291.97;5069514;28;20204;-80
2022/03/27 10:25:18;;;;;;;15.20;12.27;;;;;;;18.88;100.00;100288.56;5033716;28;20202;-79
2022/03/27 10:27:56;;;;;;;20.63;13.57;;;;;;;19.37;100.00;100284.56;5029026;28;20201;-81
2022/03/27 10:30:25;;;;;;;17.13;13.23;;;;;;;19.03;100.00;100281.09;5026109;28;20243;-80
2022/03/27 10:32:53;;;;;;;15.70;12.33;;;;;;;19.25;100.00;100285.56;5033080;28;20201;-80
2022/03/27 10:35:38;;;;;;;16.97;12.53;;;;;;;19.83;100.00;100278.06;5029940;28;20240;-80
2022/03/27 10:38:16;;;;;;;14.80;11.57;;;;;;;20.46;97.35;100277.09;5022536;28;20197;-80
2022/03/27 10:40:56;;;;;;;16.23;10.80;;;;;;;20.62;96.76;100275.75;5028296;28;20300;-80
2022/03/27 10:43:36;;;;;;;13.67;10.80;;;;;;;20.89;87.85;100270.59;5052804;28;20196;-81
2022/03/27 10:46:13;;;;;;;12.87;11.27;;;;;;;20.43;89.90;100265.72;5074108;28;20235;-80
2022/03/27 10:48:44;;;;;;;15.43;11.97;;;;;;;20.70;87.94;100263.31;5079771;27;20215;-81
2022/03/27 10:51:35;;;;;;;13.17;11.47;;;;;;;20.34;87.07;100261.13;5075005;28;20238;-80
2022/03/27 10:54:06;;;;;;;15.23;11.67;;;;;;;20.68;85.74;100261.75;5071937;28;20647;-80
2022/03/27 10:56:41;;;;;;;16.27;12.10;;;;;;;19.81;89.84;100255.84;5054994;28;20271;-80
2022/03/27 10:59:14;;;;;;;15.07;12.40;;;;;;;19.47;96.28;100250.56;5070826;28;20185;-81
2022/03/27 11:01:45;;;;;;;16.27;12.80;;;;;;;19.34;100.00;100260.63;5071729;28;20200;-80
2022/03/27 11:04:18;;;;;;;15.60;12.23;;;;;;;19.35;100.00;100256.97;5070675;28;20203;-81
2022/03/27 11:06:49;;;;;;;16.67;12.40;;;;;;;18.98;100.00;100259.97;5079358;28;20201;-80
2022/03/27 11:09:32;;;;;;;14.27;11.80;;;;;;;19.07;100.00;100250.31;5071962;28;20227;-80
2022/03/27 11:12:01;;;;;;;14.13;12.53;;;;;;;18.68;100.00;100252.56;5073240;28;20250;-80
2022/03/27 11:15:03;;;;;;;14.27;11.70;;;;;;;18.51;100.00;100258.38;5075222;28;20220;-81
2022/03/27 11:17:42;;;;;;;14.70;11.70;;;;;;;18.81;100.00;100250.59;5075962;28;20196;-80
2022/03/27 11:20:33;;;;;;;15.47;12.10;;;;;;;18.46;100.00;100250.72;5072927;28;20192;-80
2022/03/27 11:23:08;;;;;;;15.93;11.63;;;;;;;18.53;100.00;100248.41;5074207;28;20232;-80
2022/03/27 11:25:47;;;;;;;14.70;12.17;;;;;;;19.00;100.00;100243.72;5076148;28;20198;-80
2022/03/27 11:28:20;;;;;;;15.47;12.07;;;;;;;18.93;100.00;100239.88;5074800;28;20199;-80
2022/03/27 11:31:33;;;;;;;16.63;12.07;;;;;;;18.71;100.00;100241.56;5075278;28;20219;-81
2022/03/27 11:34:26;;;;;;;16.80;12.00;;;;;;;18.86;100.00;100234.97;5046362;28;20656;-81
2022/03/27 11:37:21;;;;;;;14.13;10.40;;;;;;;19.58;100.00;100238.94;5076143;28;20200;-80